sensor_id;sensor_type;location;lat;lon;timestamp;pressure;altitude;pressure_sealevel;temperature;humidity
11099;BME280;12223;42.650;23.364;2023-05-23T00:00:11;94492.63;;;12.00;100.00
11099;BME280;12223;42.650;23.364;2023-05-23T00:02:40;94483.78;;;11.95;100.00
11099;BME280;12223;42.650;23.364;2023-05-23T00:05:09;94487.34;;;11.89;100.00
11099;BME280;12223;42.650;23.364;2023-05-23T00:07:37;94489.88;;;11.84;100.00
11099;BME280;12223;42.650;23.364;2023-05-23T00:13:02;94488.28;;;11.59;100.00
11099;BME280;12223;42.650;23.364;2023-05-23T00:15:30;94493.69;;;11.53;100.00
11099;BME280;12223;42.650;23.364;2023-05-23T00:17:58;94465.66;;;11.40;100.00
11099;BME280;12223;42.650;23.364;2023-05-23T00:20:25;94461.28;;;11.46;100.00
11099;BME280;12223;42.650;23.364;2023-05-23T00:22:54;94449.81;;;11.40;100.00
11099;BME280;12223;42.650;23.364;2023-05-23T00:25:23;94458.31;;;11.42;100.00
11099;BME280;12223;42.650;23.364;2023-05-23T00:27:50;94462.31;;;11.45;100.00
11099;BME280;12223;42.650;23.364;2023-05-23T00:30:17;94464.50;;;11.48;100.00
11099;BME280;12223;42.650;23.364;2023-05-23T00:32:44;94466.34;;;11.47;100.00
11099;BME280;12223;42.650;23.364;2023-05-23T00:35:11;94445.09;;;11.42;100.00
11099;BME280;12223;42.650;23.364;2023-05-23T00:37:37;94470.13;;;11.51;100.00
11099;BME280;12223;42.650;23.364;2023-05-23T00:40:07;94448.41;;;11.49;100.00
11099;BME280;12223;42.650;23.364;2023-05-23T00:42:35;94462.06;;;11.58;100.00
11099;BME280;12223;42.650;23.364;2023-05-23T00:45:03;94466.91;;;11.61;100.00
11099;BME280;12223;42.650;23.364;2023-05-23T00:47:31;94470.91;;;11.63;100.00
11099;BME280;12223;42.650;23.364;2023-05-23T00:49:59;94467.03;;;11.54;100.00
11099;BME280;12223;42.650;23.364;2023-05-23T00:52:26;94487.03;;;11.62;100.00
11099;BME280;12223;42.650;23.364;2023-05-23T00:54:53;94481.28;;;11.53;100.00
11099;BME280;12223;42.650;23.364;2023-05-23T00:57:22;94482.22;;;11.47;100.00
11099;BME280;12223;42.650;23.364;2023-05-23T00:59:49;94476.84;;;11.31;100.00
11099;BME280;12223;42.650;23.364;2023-05-23T01:02:17;94489.78;;;11.32;100.00
11099;BME280;12223;42.650;23.364;2023-05-23T01:04:46;94479.47;;;11.31;100.00
11099;BME280;12223;42.650;23.364;2023-05-23T01:07:13;94480.84;;;11.33;100.00
11099;BME280;12223;42.650;23.364;2023-05-23T01:09:40;94487.97;;;11.33;100.00
11099;BME280;12223;42.650;23.364;2023-05-23T01:12:17;94485.00;;;11.29;100.00
11099;BME280;12223;42.650;23.364;2023-05-23T01:14:50;94465.34;;;11.25;100.00
11099;BME280;12223;42.650;23.364;2023-05-23T01:17:27;94459.47;;;11.23;100.00
11099;BME280;12223;42.650;23.364;2023-05-23T01:19:58;94469.56;;;11.26;100.00
11099;BME280;12223;42.650;23.364;2023-05-23T01:22:37;94468.00;;;11.25;100.00
11099;BME280;12223;42.650;23.364;2023-05-23T01:25:10;94469.94;;;11.18;100.00
11099;BME280;12223;42.650;23.364;2023-05-23T01:27:47;94487.28;;;11.14;100.00
11099;BME280;12223;42.650;23.364;2023-05-23T01:30:18;94495.09;;;11.09;100.00
11099;BME280;12223;42.650;23.364;2023-05-23T01:32:47;94475.88;;;10.90;100.00
11099;BME280;12223;42.650;23.364;2023-05-23T01:35:15;94481.06;;;10.97;100.00
11099;BME280;12223;42.650;23.364;2023-05-23T01:37:45;94482.22;;;11.01;100.00
11099;BME280;12223;42.650;23.364;2023-05-23T01:40:32;94478.91;;;11.05;100.00
11099;BME280;12223;42.650;23.364;2023-05-23T01:43:01;94486.25;;;11.03;100.00
11099;BME280;12223;42.650;23.364;2023-05-23T01:45:28;94470.84;;;11.00;100.00
11099;BME280;12223;42.650;23.364;2023-05-23T01:47:56;94468.78;;;11.02;100.00
11099;BME280;12223;42.650;23.364;2023-05-23T01:50:23;94462.91;;;11.00;100.00
11099;BME280;12223;42.650;23.364;2023-05-23T01:52:51;94458.31;;;11.07;100.00
11099;BME280;12223;42.650;23.364;2023-05-23T01:55:20;94465.91;;;11.04;100.00
11099;BME280;12223;42.650;23.364;2023-05-23T01:57:51;94448.44;;;10.79;100.00
11099;BME280;12223;42.650;23.364;2023-05-23T02:00:24;94463.38;;;10.85;100.00
11099;BME280;12223;42.650;23.364;2023-05-23T02:02:51;94477.28;;;10.81;100.00
11099;BME280;12223;42.650;23.364;2023-05-23T02:05:19;94470.59;;;10.78;100.00
11099;BME280;12223;42.650;23.364;2023-05-23T02:07:48;94472.75;;;10.81;100.00
11099;BME280;12223;42.650;23.364;2023-05-23T02:10:17;94469.56;;;10.79;100.00
11099;BME280;12223;42.650;23.364;2023-05-23T02:12:44;94466.34;;;10.77;100.00
11099;BME280;12223;42.650;23.364;2023-05-23T02:15:12;94466.34;;;10.77;100.00
11099;BME280;12223;42.650;23.364;2023-05-23T02:17:40;94459.22;;;10.78;100.00
11099;BME280;12223;42.650;23.364;2023-05-23T02:20:10;94457.81;;;10.75;100.00
11099;BME280;12223;42.650;23.364;2023-05-23T02:22:37;94452.53;;;10.75;100.00
11099;BME280;12223;42.650;23.364;2023-05-23T02:25:06;94452.81;;;10.74;100.00
11099;BME280;12223;42.650;23.364;2023-05-23T02:27:35;94427.75;;;10.65;100.00
11099;BME280;12223;42.650;23.364;2023-05-23T02:30:09;94445.69;;;10.74;100.00
11099;BME280;12223;42.650;23.364;2023-05-23T02:32:36;94446.22;;;10.76;100.00
11099;BME280;12223;42.650;23.364;2023-05-23T02:35:05;94441.66;;;10.72;100.00
11099;BME280;12223;42.650;23.364;2023-05-23T02:37:32;94444.06;;;10.73;100.00
11099;BME280;12223;42.650;23.364;2023-05-23T02:39:59;94435.56;;;10.71;100.00
11099;BME280;12223;42.650;23.364;2023-05-23T02:42:26;94444.16;;;10.67;100.00
11099;BME280;12223;42.650;23.364;2023-05-23T02:44:53;94441.94;;;10.52;100.00
11099;BME280;12223;42.650;23.364;2023-05-23T02:47:20;94457.91;;;10.57;100.00
11099;BME280;12223;42.650;23.364;2023-05-23T02:49:47;94456.09;;;10.58;100.00
11099;BME280;12223;42.650;23.364;2023-05-23T02:52:17;94437.25;;;10.54;100.00
11099;BME280;12223;42.650;23.364;2023-05-23T02:54:45;94428.44;;;10.60;100.00
11099;BME280;12223;42.650;23.364;2023-05-23T02:57:12;94392.69;;;10.46;100.00
11099;BME280;12223;42.650;23.364;2023-05-23T02:59:39;94410.50;;;10.62;100.00
11099;BME280;12223;42.650;23.364;2023-05-23T03:02:06;94395.34;;;10.69;100.00
11099;BME280;12223;42.650;23.364;2023-05-23T03:04:33;94395.50;;;10.74;100.00
11099;BME280;12223;42.650;23.364;2023-05-23T03:07:02;94395.34;;;10.69;100.00
11099;BME280;12223;42.650;23.364;2023-05-23T03:09:32;94403.53;;;10.79;100.00
11099;BME280;12223;42.650;23.364;2023-05-23T03:11:59;94407.09;;;10.85;100.00
11099;BME280;12223;42.650;23.364;2023-05-23T03:14:26;94433.84;;;10.88;100.00
11099;BME280;12223;42.650;23.364;2023-05-23T03:16:54;94448.44;;;10.91;100.00
11099;BME280;12223;42.650;23.364;2023-05-23T03:19:21;94470.97;;;10.94;100.00
11099;BME280;12223;42.650;23.364;2023-05-23T03:21:49;94482.09;;;10.96;100.00
11099;BME280;12223;42.650;23.364;2023-05-23T03:24:16;94497.94;;;11.07;100.00
11099;BME280;12223;42.650;23.364;2023-05-23T03:26:50;94493.72;;;11.41;100.00
11099;BME280;12223;42.650;23.364;2023-05-23T03:29:20;94514.41;;;11.79;100.00
11099;BME280;12223;42.650;23.364;2023-05-23T03:31:51;94537.63;;;12.29;100.00
11099;BME280;12223;42.650;23.364;2023-05-23T03:34:22;94546.75;;;12.78;100.00
11099;BME280;12223;42.650;23.364;2023-05-23T03:36:51;94561.97;;;13.44;100.00
11099;BME280;12223;42.650;23.364;2023-05-23T03:39:21;94583.44;;;13.98;100.00
11099;BME280;12223;42.650;23.364;2023-05-23T03:41:51;94590.91;;;14.61;100.00
11099;BME280;12223;42.650;23.364;2023-05-23T03:44:18;94584.72;;;15.31;100.00
11099;BME280;12223;42.650;23.364;2023-05-23T03:46:48;94604.06;;;15.80;100.00
11099;BME280;12223;42.650;23.364;2023-05-23T03:49:23;94597.03;;;16.06;100.00
11099;BME280;12223;42.650;23.364;2023-05-23T03:51:52;94592.25;;;16.55;100.00
11099;BME280;12223;42.650;23.364;2023-05-23T03:54:19;94587.66;;;17.33;100.00
11099;BME280;12223;42.650;23.364;2023-05-23T03:56:51;94606.25;;;18.55;98.52
11099;BME280;12223;42.650;23.364;2023-05-23T03:59:17;94597.63;;;19.32;83.57
11099;BME280;12223;42.650;23.364;2023-05-23T04:01:45;94610.13;;;19.86;75.73
11099;BME280;12223;42.650;23.364;2023-05-23T04:04:12;94620.19;;;20.57;69.74
11099;BME280;12223;42.650;23.364;2023-05-23T04:06:41;94612.31;;;21.50;65.27
11099;BME280;12223;42.650;23.364;2023-05-23T04:09:08;94605.97;;;22.43;60.60
11099;BME280;12223;42.650;23.364;2023-05-23T04:11:37;94594.63;;;23.15;56.33
11099;BME280;12223;42.650;23.364;2023-05-23T04:14:05;94601.00;;;23.91;55.05
11099;BME280;12223;42.650;23.364;2023-05-23T04:16:32;94592.66;;;24.23;50.00
11099;BME280;12223;42.650;23.364;2023-05-23T04:19:00;94603.50;;;24.63;49.47
11099;BME280;12223;42.650;23.364;2023-05-23T04:21:30;94609.69;;;24.94;48.62
11099;BME280;12223;42.650;23.364;2023-05-23T04:23:59;94608.59;;;24.95;47.86
11099;BME280;12223;42.650;23.364;2023-05-23T04:26:26;94612.28;;;25.08;48.81
11099;BME280;12223;42.650;23.364;2023-05-23T04:28:58;94616.97;;;25.50;48.75
11099;BME280;12223;42.650;23.364;2023-05-23T04:31:29;94614.81;;;25.78;47.88
11099;BME280;12223;42.650;23.364;2023-05-23T04:33:58;94617.56;;;25.21;48.28
11099;BME280;12223;42.650;23.364;2023-05-23T04:36:28;94601.41;;;24.20;50.34
11099;BME280;12223;42.650;23.364;2023-05-23T04:38:56;94604.94;;;23.85;50.17
11099;BME280;12223;42.650;23.364;2023-05-23T04:41:30;94614.00;;;22.90;53.44
11099;BME280;12223;42.650;23.364;2023-05-23T04:43:57;94614.06;;;21.41;59.49
11099;BME280;12223;42.650;23.364;2023-05-23T04:46:24;94612.31;;;20.89;64.91
11099;BME280;12223;42.650;23.364;2023-05-23T04:49:00;94622.88;;;19.65;79.39
11099;BME280;12223;42.650;23.364;2023-05-23T04:51:29;94614.06;;;19.10;90.23
11099;BME280;12223;42.650;23.364;2023-05-23T04:54:04;94609.28;;;19.90;88.86
11099;BME280;12223;42.650;23.364;2023-05-23T04:56:31;94620.63;;;21.11;78.60
11099;BME280;12223;42.650;23.364;2023-05-23T04:58:58;94617.25;;;21.99;67.74
11099;BME280;12223;42.650;23.364;2023-05-23T05:01:27;94634.16;;;22.32;64.97
11099;BME280;12223;42.650;23.364;2023-05-23T05:04:03;94629.78;;;21.10;73.62
11099;BME280;12223;42.650;23.364;2023-05-23T05:06:30;94645.25;;;21.18;73.75
11099;BME280;12223;42.650;23.364;2023-05-23T05:08:57;94630.44;;;20.55;76.27
11099;BME280;12223;42.650;23.364;2023-05-23T05:11:25;94645.25;;;19.35;86.91
11099;BME280;12223;42.650;23.364;2023-05-23T05:13:54;94637.59;;;18.44;98.18
11099;BME280;12223;42.650;23.364;2023-05-23T05:16:22;94644.31;;;17.65;100.00
11099;BME280;12223;42.650;23.364;2023-05-23T05:18:50;94647.09;;;16.93;100.00
11099;BME280;12223;42.650;23.364;2023-05-23T05:21:18;94640.69;;;16.00;100.00
11099;BME280;12223;42.650;23.364;2023-05-23T05:23:47;94645.38;;;15.88;100.00
11099;BME280;12223;42.650;23.364;2023-05-23T05:26:14;94638.75;;;15.90;100.00
11099;BME280;12223;42.650;23.364;2023-05-23T05:28:45;94644.34;;;15.94;100.00
11099;BME280;12223;42.650;23.364;2023-05-23T05:31:13;94636.72;;;16.07;100.00
11099;BME280;12223;42.650;23.364;2023-05-23T05:33:41;94642.75;;;16.30;100.00
11099;BME280;12223;42.650;23.364;2023-05-23T05:36:11;94636.16;;;16.37;100.00
11099;BME280;12223;42.650;23.364;2023-05-23T05:38:40;94649.09;;;16.66;100.00
11099;BME280;12223;42.650;23.364;2023-05-23T05:41:07;94637.81;;;16.54;100.00
11099;BME280;12223;42.650;23.364;2023-05-23T05:43:34;94634.69;;;16.62;100.00
11099;BME280;12223;42.650;23.364;2023-05-23T05:46:01;94645.41;;;16.77;100.00
11099;BME280;12223;42.650;23.364;2023-05-23T05:48:29;94650.88;;;17.12;100.00
11099;BME280;12223;42.650;23.364;2023-05-23T05:50:56;94602.06;;;17.22;100.00
11099;BME280;12223;42.650;23.364;2023-05-23T05:53:26;94652.06;;;17.72;100.00
11099;BME280;12223;42.650;23.364;2023-05-23T05:55:56;94655.31;;;17.94;100.00
11099;BME280;12223;42.650;23.364;2023-05-23T05:58:23;94654.75;;;17.87;100.00
11099;BME280;12223;42.650;23.364;2023-05-23T06:00:50;94653.69;;;18.14;100.00
11099;BME280;12223;42.650;23.364;2023-05-23T06:03:18;94638.16;;;18.31;100.00
11099;BME280;12223;42.650;23.364;2023-05-23T06:05:45;94635.97;;;18.48;100.00
11099;BME280;12223;42.650;23.364;2023-05-23T06:08:13;94652.81;;;18.64;100.00
11099;BME280;12223;42.650;23.364;2023-05-23T06:10:48;94628.31;;;19.01;100.00
11099;BME280;12223;42.650;23.364;2023-05-23T06:13:17;94645.84;;;19.76;100.00
11099;BME280;12223;42.650;23.364;2023-05-23T06:15:44;94650.09;;;20.11;100.00
11099;BME280;12223;42.650;23.364;2023-05-23T06:18:11;94654.53;;;20.26;99.20
11099;BME280;12223;42.650;23.364;2023-05-23T06:20:43;94652.56;;;19.74;97.31
11099;BME280;12223;42.650;23.364;2023-05-23T06:23:14;94640.72;;;19.41;100.00
11099;BME280;12223;42.650;23.364;2023-05-23T06:25:41;94645.69;;;19.08;100.00
11099;BME280;12223;42.650;23.364;2023-05-23T06:28:08;94637.00;;;18.72;100.00
11099;BME280;12223;42.650;23.364;2023-05-23T06:30:38;94639.44;;;18.69;100.00
11099;BME280;12223;42.650;23.364;2023-05-23T06:33:05;94642.44;;;18.22;100.00
11099;BME280;12223;42.650;23.364;2023-05-23T06:35:32;94645.91;;;18.27;100.00
11099;BME280;12223;42.650;23.364;2023-05-23T06:38:00;94649.13;;;18.24;100.00
11099;BME280;12223;42.650;23.364;2023-05-23T06:40:27;94645.09;;;18.22;100.00
11099;BME280;12223;42.650;23.364;2023-05-23T06:42:58;94661.16;;;17.96;100.00
11099;BME280;12223;42.650;23.364;2023-05-23T06:45:25;94654.72;;;18.28;100.00
11099;BME280;12223;42.650;23.364;2023-05-23T06:47:54;94647.41;;;18.79;100.00
11099;BME280;12223;42.650;23.364;2023-05-23T06:50:23;94642.94;;;19.23;100.00
11099;BME280;12223;42.650;23.364;2023-05-23T06:52:51;94645.34;;;19.69;100.00
11099;BME280;12223;42.650;23.364;2023-05-23T06:55:19;94638.25;;;19.88;100.00
11099;BME280;12223;42.650;23.364;2023-05-23T06:57:46;94637.16;;;20.23;100.00
11099;BME280;12223;42.650;23.364;2023-05-23T07:00:17;94641.59;;;20.62;95.76
11099;BME280;12223;42.650;23.364;2023-05-23T07:02:46;94628.75;;;20.82;91.03
11099;BME280;12223;42.650;23.364;2023-05-23T07:05:16;94638.97;;;21.04;87.63
11099;BME280;12223;42.650;23.364;2023-05-23T07:07:43;94639.25;;;21.26;86.87
11099;BME280;12223;42.650;23.364;2023-05-23T07:10:11;94638.00;;;21.38;86.58
11099;BME280;12223;42.650;23.364;2023-05-23T07:12:40;94637.16;;;21.42;85.26
11099;BME280;12223;42.650;23.364;2023-05-23T07:15:08;94616.31;;;21.34;84.82
11099;BME280;12223;42.650;23.364;2023-05-23T07:17:35;94626.06;;;21.67;83.50
11099;BME280;12223;42.650;23.364;2023-05-23T07:20:02;94618.44;;;21.56;81.48
11099;BME280;12223;42.650;23.364;2023-05-23T07:22:31;94616.97;;;21.45;81.82
11099;BME280;12223;42.650;23.364;2023-05-23T07:24:58;94622.25;;;20.65;87.51
11099;BME280;12223;42.650;23.364;2023-05-23T07:27:25;94606.06;;;20.22;94.54
11099;BME280;12223;42.650;23.364;2023-05-23T07:29:59;94600.81;;;19.78;100.00
11099;BME280;12223;42.650;23.364;2023-05-23T07:32:28;94604.50;;;19.43;100.00
11099;BME280;12223;42.650;23.364;2023-05-23T07:34:56;94594.75;;;19.18;100.00
11099;BME280;12223;42.650;23.364;2023-05-23T07:37:24;94607.16;;;19.09;100.00
11099;BME280;12223;42.650;23.364;2023-05-23T07:39:56;94588.00;;;19.31;100.00
11099;BME280;12223;42.650;23.364;2023-05-23T07:42:26;94599.56;;;19.65;100.00
11099;BME280;12223;42.650;23.364;2023-05-23T07:44:53;94601.25;;;19.90;100.00
11099;BME280;12223;42.650;23.364;2023-05-23T07:47:20;94599.91;;;19.88;100.00
11099;BME280;12223;42.650;23.364;2023-05-23T07:49:48;94607.38;;;19.96;100.00
11099;BME280;12223;42.650;23.364;2023-05-23T07:52:16;94593.03;;;20.11;100.00
11099;BME280;12223;42.650;23.364;2023-05-23T07:54:43;94595.53;;;20.26;100.00
11099;BME280;12223;42.650;23.364;2023-05-23T07:57:11;94596.81;;;20.04;100.00
11099;BME280;12223;42.650;23.364;2023-05-23T07:59:41;94600.28;;;19.76;100.00
11099;BME280;12223;42.650;23.364;2023-05-23T08:02:10;94603.38;;;19.54;100.00
11099;BME280;12223;42.650;23.364;2023-05-23T08:04:40;94598.03;;;19.54;100.00
11099;BME280;12223;42.650;23.364;2023-05-23T08:07:08;94601.31;;;19.41;100.00
11099;BME280;12223;42.650;23.364;2023-05-23T08:09:35;94585.81;;;19.38;100.00
11099;BME280;12223;42.650;23.364;2023-05-23T08:12:19;94592.16;;;19.08;100.00
11099;BME280;12223;42.650;23.364;2023-05-23T08:14:49;94581.31;;;18.79;100.00
11099;BME280;12223;42.650;23.364;2023-05-23T08:17:16;94589.81;;;18.97;100.00
11099;BME280;12223;42.650;23.364;2023-05-23T08:19:43;94590.25;;;19.14;100.00
11099;BME280;12223;42.650;23.364;2023-05-23T08:22:11;94576.91;;;19.04;100.00
11099;BME280;12223;42.650;23.364;2023-05-23T08:24:38;94591.81;;;19.20;100.00
11099;BME280;12223;42.650;23.364;2023-05-23T08:27:07;94592.63;;;19.20;100.00
11099;BME280;12223;42.650;23.364;2023-05-23T08:29:36;94587.97;;;19.36;100.00
11099;BME280;12223;42.650;23.364;2023-05-23T08:32:04;94584.31;;;19.22;100.00
11099;BME280;12223;42.650;23.364;2023-05-23T08:34:34;94578.66;;;19.23;100.00
11099;BME280;12223;42.650;23.364;2023-05-23T08:37:01;94589.88;;;19.31;100.00
11099;BME280;12223;42.650;23.364;2023-05-23T08:39:29;94577.72;;;19.09;100.00
11099;BME280;12223;42.650;23.364;2023-05-23T08:41:56;94575.22;;;19.18;100.00
11099;BME280;12223;42.650;23.364;2023-05-23T08:44:23;94572.78;;;19.26;100.00
11099;BME280;12223;42.650;23.364;2023-05-23T08:46:52;94578.25;;;19.50;100.00
11099;BME280;12223;42.650;23.364;2023-05-23T08:49:21;94572.69;;;19.76;100.00
11099;BME280;12223;42.650;23.364;2023-05-23T08:51:52;94575.59;;;19.79;100.00
11099;BME280;12223;42.650;23.364;2023-05-23T08:54:23;94582.06;;;19.78;100.00
11099;BME280;12223;42.650;23.364;2023-05-23T08:56:53;94581.16;;;19.88;100.00
11099;BME280;12223;42.650;23.364;2023-05-23T08:59:21;94579.97;;;19.99;100.00
11099;BME280;12223;42.650;23.364;2023-05-23T09:01:52;94577.28;;;20.33;94.56
11099;BME280;12223;42.650;23.364;2023-05-23T09:04:21;94563.41;;;20.50;100.00
11099;BME280;12223;42.650;23.364;2023-05-23T09:06:53;94568.28;;;20.48;100.00
11099;BME280;12223;42.650;23.364;2023-05-23T09:09:21;94575.09;;;20.59;100.00
11099;BME280;12223;42.650;23.364;2023-05-23T09:11:49;94568.81;;;20.44;100.00
11099;BME280;12223;42.650;23.364;2023-05-23T09:14:17;94572.44;;;20.35;99.43
11099;BME280;12223;42.650;23.364;2023-05-23T09:16:47;94569.34;;;20.46;87.00
11099;BME280;12223;42.650;23.364;2023-05-23T09:19:17;94569.63;;;20.45;86.11
11099;BME280;12223;42.650;23.364;2023-05-23T09:21:44;94564.19;;;20.50;76.21
11099;BME280;12223;42.650;23.364;2023-05-23T09:24:12;94570.34;;;20.74;79.34
11099;BME280;12223;42.650;23.364;2023-05-23T09:26:39;94564.66;;;21.00;77.17
11099;BME280;12223;42.650;23.364;2023-05-23T09:29:06;94576.31;;;21.33;69.02
11099;BME280;12223;42.650;23.364;2023-05-23T09:31:37;94565.97;;;21.58;65.04
11099;BME280;12223;42.650;23.364;2023-05-23T09:34:06;94563.00;;;21.92;65.92
11099;BME280;12223;42.650;23.364;2023-05-23T09:36:39;94559.53;;;22.24;62.99
11099;BME280;12223;42.650;23.364;2023-05-23T09:39:10;94562.63;;;22.31;60.70
11099;BME280;12223;42.650;23.364;2023-05-23T09:41:37;94560.53;;;22.42;59.69
11099;BME280;12223;42.650;23.364;2023-05-23T09:44:07;94562.72;;;22.54;57.87
11099;BME280;12223;42.650;23.364;2023-05-23T09:46:36;94554.75;;;22.49;52.00
11099;BME280;12223;42.650;23.364;2023-05-23T09:49:15;94548.56;;;22.48;53.81
11099;BME280;12223;42.650;23.364;2023-05-23T09:51:56;94549.25;;;22.54;52.10
11099;BME280;12223;42.650;23.364;2023-05-23T09:54:23;94550.66;;;22.51;52.89
11099;BME280;12223;42.650;23.364;2023-05-23T09:56:53;94541.69;;;22.69;53.15
11099;BME280;12223;42.650;23.364;2023-05-23T09:59:25;94547.38;;;22.68;52.96
11099;BME280;12223;42.650;23.364;2023-05-23T10:01:56;94544.69;;;22.68;53.11
11099;BME280;12223;42.650;23.364;2023-05-23T10:04:29;94547.38;;;22.54;54.49
11099;BME280;12223;42.650;23.364;2023-05-23T10:07:04;94538.88;;;22.06;47.55
11099;BME280;12223;42.650;23.364;2023-05-23T10:09:35;94537.59;;;22.31;47.01
11099;BME280;12223;42.650;23.364;2023-05-23T10:12:43;94537.00;;;22.61;47.14
11099;BME280;12223;42.650;23.364;2023-05-23T10:15:14;94541.00;;;22.77;49.24
11099;BME280;12223;42.650;23.364;2023-05-23T10:17:52;94528.63;;;22.76;47.74
11099;BME280;12223;42.650;23.364;2023-05-23T10:20:29;94539.91;;;22.78;46.93
11099;BME280;12223;42.650;23.364;2023-05-23T10:23:01;94523.94;;;22.55;44.29
11099;BME280;12223;42.650;23.364;2023-05-23T10:25:30;94549.94;;;21.53;45.05
11099;BME280;12223;42.650;23.364;2023-05-23T10:27:58;94514.78;;;21.12;48.08
11099;BME280;12223;42.650;23.364;2023-05-23T10:30:27;94529.53;;;20.96;47.99
11099;BME280;12223;42.650;23.364;2023-05-23T10:32:55;94516.63;;;20.98;48.64
11099;BME280;12223;42.650;23.364;2023-05-23T10:35:31;94526.94;;;21.10;51.97
11099;BME280;12223;42.650;23.364;2023-05-23T10:38:09;94526.31;;;21.50;49.01
11099;BME280;12223;42.650;23.364;2023-05-23T10:40:52;94521.81;;;21.64;46.42
11099;BME280;12223;42.650;23.364;2023-05-23T10:43:26;94523.97;;;21.81;46.35
11099;BME280;12223;42.650;23.364;2023-05-23T10:45:56;94521.72;;;21.70;45.50
11099;BME280;12223;42.650;23.364;2023-05-23T10:48:32;94499.66;;;21.86;45.71
11099;BME280;12223;42.650;23.364;2023-05-23T10:51:04;94497.31;;;21.66;45.75
11099;BME280;12223;42.650;23.364;2023-05-23T10:53:38;94517.09;;;21.56;47.06
11099;BME280;12223;42.650;23.364;2023-05-23T10:56:06;94516.97;;;21.48;45.58
11099;BME280;12223;42.650;23.364;2023-05-23T10:58:38;94519.34;;;21.68;45.19
11099;BME280;12223;42.650;23.364;2023-05-23T11:01:06;94500.59;;;21.63;45.19
11099;BME280;12223;42.650;23.364;2023-05-23T11:03:34;94508.53;;;21.87;43.68
11099;BME280;12223;42.650;23.364;2023-05-23T11:06:02;94494.94;;;22.11;43.62
11099;BME280;12223;42.650;23.364;2023-05-23T11:08:40;94494.03;;;22.15;43.93
11099;BME280;12223;42.650;23.364;2023-05-23T11:11:10;94502.50;;;22.09;43.39
11099;BME280;12223;42.650;23.364;2023-05-23T11:13:55;94495.25;;;22.23;41.67
11099;BME280;12223;42.650;23.364;2023-05-23T11:16:30;94502.59;;;22.03;42.25
11099;BME280;12223;42.650;23.364;2023-05-23T11:19:20;94507.19;;;21.71;42.56
11099;BME280;12223;42.650;23.364;2023-05-23T11:21:53;94478.75;;;21.83;42.67
11099;BME280;12223;42.650;23.364;2023-05-23T11:24:23;94490.19;;;21.89;41.67
11099;BME280;12223;42.650;23.364;2023-05-23T11:26:56;94485.44;;;21.86;42.22
11099;BME280;12223;42.650;23.364;2023-05-23T11:29:27;94473.06;;;21.85;42.90
11099;BME280;12223;42.650;23.364;2023-05-23T11:31:55;94458.00;;;21.70;40.77
11099;BME280;12223;42.650;23.364;2023-05-23T11:34:26;94477.38;;;21.86;41.28
11099;BME280;12223;42.650;23.364;2023-05-23T11:36:54;94475.88;;;21.93;41.02
11099;BME280;12223;42.650;23.364;2023-05-23T11:39:28;94474.41;;;22.15;41.72
11099;BME280;12223;42.650;23.364;2023-05-23T11:42:04;94466.47;;;22.23;41.39
11099;BME280;12223;42.650;23.364;2023-05-23T11:44:31;94480.72;;;22.37;41.30
11099;BME280;12223;42.650;23.364;2023-05-23T11:47:00;94463.66;;;22.15;40.08
11099;BME280;12223;42.650;23.364;2023-05-23T11:49:29;94458.56;;;22.27;40.13
11099;BME280;12223;42.650;23.364;2023-05-23T11:51:58;94466.13;;;22.52;39.25
11099;BME280;12223;42.650;23.364;2023-05-23T11:54:32;94473.50;;;22.60;40.34
11099;BME280;12223;42.650;23.364;2023-05-23T11:57:03;94459.34;;;22.68;40.05
11099;BME280;12223;42.650;23.364;2023-05-23T11:59:30;94468.34;;;22.50;37.98
11099;BME280;12223;42.650;23.364;2023-05-23T12:01:58;94454.91;;;22.36;37.68
11099;BME280;12223;42.650;23.364;2023-05-23T12:04:25;94461.25;;;22.54;39.04
11099;BME280;12223;42.650;23.364;2023-05-23T12:06:52;94450.66;;;22.58;38.15
11099;BME280;12223;42.650;23.364;2023-05-23T12:09:20;94452.47;;;22.76;39.07
11099;BME280;12223;42.650;23.364;2023-05-23T12:11:49;94454.63;;;22.88;40.20
11099;BME280;12223;42.650;23.364;2023-05-23T12:14:17;94452.38;;;22.54;40.75
11099;BME280;12223;42.650;23.364;2023-05-23T12:16:46;94403.97;;;22.40;40.11
11099;BME280;12223;42.650;23.364;2023-05-23T12:19:17;94451.78;;;22.57;40.56
11099;BME280;12223;42.650;23.364;2023-05-23T12:21:45;94444.31;;;22.26;39.89
11099;BME280;12223;42.650;23.364;2023-05-23T12:24:18;94438.81;;;22.45;41.67
11099;BME280;12223;42.650;23.364;2023-05-23T12:26:52;94430.44;;;22.60;42.18
11099;BME280;12223;42.650;23.364;2023-05-23T12:29:26;94439.03;;;22.49;41.17
11099;BME280;12223;42.650;23.364;2023-05-23T12:31:57;94428.25;;;22.62;41.59
11099;BME280;12223;42.650;23.364;2023-05-23T12:34:26;94405.81;;;22.53;40.01
11099;BME280;12223;42.650;23.364;2023-05-23T12:36:54;94432.75;;;22.53;40.49
11099;BME280;12223;42.650;23.364;2023-05-23T12:39:23;94415.69;;;22.58;40.55
11099;BME280;12223;42.650;23.364;2023-05-23T12:41:53;94401.88;;;22.37;38.91
11099;BME280;12223;42.650;23.364;2023-05-23T12:44:23;94417.78;;;22.74;39.02
11099;BME280;12223;42.650;23.364;2023-05-23T12:46:50;94414.28;;;22.96;39.01
11099;BME280;12223;42.650;23.364;2023-05-23T12:49:19;94419.03;;;23.13;39.24
11099;BME280;12223;42.650;23.364;2023-05-23T12:51:47;94406.53;;;23.39;38.20
11099;BME280;12223;42.650;23.364;2023-05-23T12:54:16;94391.72;;;23.50;38.38
11099;BME280;12223;42.650;23.364;2023-05-23T12:56:45;94409.56;;;23.69;37.15
11099;BME280;12223;42.650;23.364;2023-05-23T12:59:23;94415.47;;;23.48;35.70